sensor_id;sensor_type;location;lat;lon;timestamp;pressure;altitude;pressure_sealevel;temperature;humidity
59608;BME280;45426;44.726;10.390;2023-03-08T00:01:31;99345.06;;;8.19;100.00
59608;BME280;45426;44.726;10.390;2023-03-08T00:03:57;99328.63;;;8.81;100.00
59608;BME280;45426;44.726;10.390;2023-03-08T00:06:23;99319.84;;;9.00;100.00
59608;BME280;45426;44.726;10.390;2023-03-08T00:08:53;99326.66;;;9.25;100.00
59608;BME280;45426;44.726;10.390;2023-03-08T00:11:19;99336.09;;;9.16;100.00
59608;BME280;45426;44.726;10.390;2023-03-08T00:13:44;99332.63;;;9.15;100.00
59608;BME280;45426;44.726;10.390;2023-03-08T00:16:11;99326.84;;;9.17;100.00
59608;BME280;45426;44.726;10.390;2023-03-08T00:18:38;99339.28;;;8.73;100.00
59608;BME280;45426;44.726;10.390;2023-03-08T00:21:09;99335.53;;;8.78;100.00
59608;BME280;45426;44.726;10.390;2023-03-08T00:23:35;99335.50;;;8.22;100.00
59608;BME280;45426;44.726;10.390;2023-03-08T00:26:01;99343.91;;;7.80;100.00
59608;BME280;45426;44.726;10.390;2023-03-08T00:28:27;99329.84;;;7.74;100.00
59608;BME280;45426;44.726;10.390;2023-03-08T00:31:00;99326.69;;;7.84;100.00
59608;BME280;45426;44.726;10.390;2023-03-08T00:33:27;99315.69;;;8.18;100.00
59608;BME280;45426;44.726;10.390;2023-03-08T00:35:56;99316.31;;;7.74;100.00
59608;BME280;45426;44.726;10.390;2023-03-08T00:38:22;99309.91;;;8.19;100.00
59608;BME280;45426;44.726;10.390;2023-03-08T00:40:47;99307.41;;;7.86;100.00
59608;BME280;45426;44.726;10.390;2023-03-08T00:43:12;99329.97;;;6.83;100.00
59608;BME280;45426;44.726;10.390;2023-03-08T00:45:38;99325.00;;;6.72;100.00
59608;BME280;45426;44.726;10.390;2023-03-08T00:48:03;99311.84;;;7.16;100.00
59608;BME280;45426;44.726;10.390;2023-03-08T00:50:29;99312.34;;;6.97;100.00
59608;BME280;45426;44.726;10.390;2023-03-08T00:52:54;99315.75;;;7.68;100.00
59608;BME280;45426;44.726;10.390;2023-03-08T00:55:19;99306.97;;;7.10;100.00
59608;BME280;45426;44.726;10.390;2023-03-08T00:57:45;99311.16;;;7.32;100.00
59608;BME280;45426;44.726;10.390;2023-03-08T01:00:11;99308.22;;;7.12;100.00
59608;BME280;45426;44.726;10.390;2023-03-08T01:02:37;99313.25;;;6.89;100.00
59608;BME280;45426;44.726;10.390;2023-03-08T01:05:06;99305.66;;;7.28;100.00
59608;BME280;45426;44.726;10.390;2023-03-08T01:07:31;99321.28;;;7.35;100.00
59608;BME280;45426;44.726;10.390;2023-03-08T01:09:57;99314.53;;;7.66;100.00
59608;BME280;45426;44.726;10.390;2023-03-08T01:12:22;99318.34;;;7.15;100.00
59608;BME280;45426;44.726;10.390;2023-03-08T01:14:52;99322.88;;;7.48;100.00
59608;BME280;45426;44.726;10.390;2023-03-08T01:17:18;99315.94;;;8.00;100.00
59608;BME280;45426;44.726;10.390;2023-03-08T01:19:43;99313.06;;;7.68;100.00
59608;BME280;45426;44.726;10.390;2023-03-08T01:22:09;99315.53;;;7.61;100.00
59608;BME280;45426;44.726;10.390;2023-03-08T01:24:34;99306.66;;;7.11;100.00
59608;BME280;45426;44.726;10.390;2023-03-08T01:27:00;99313.59;;;7.00;100.00
59608;BME280;45426;44.726;10.390;2023-03-08T01:29:26;99309.75;;;7.87;100.00
59608;BME280;45426;44.726;10.390;2023-03-08T01:31:53;99320.84;;;7.57;100.00
59608;BME280;45426;44.726;10.390;2023-03-08T01:34:19;99325.25;;;7.37;100.00
59608;BME280;45426;44.726;10.390;2023-03-08T01:36:44;99333.22;;;7.71;100.00
59608;BME280;45426;44.726;10.390;2023-03-08T01:39:10;99318.38;;;7.52;100.00
59608;BME280;45426;44.726;10.390;2023-03-08T01:41:36;99326.22;;;6.96;100.00
59608;BME280;45426;44.726;10.390;2023-03-08T01:44:01;99319.78;;;6.55;100.00
59608;BME280;45426;44.726;10.390;2023-03-08T01:51:35;99302.72;;;6.63;100.00
59608;BME280;45426;44.726;10.390;2023-03-08T01:54:05;99305.66;;;6.37;100.00
59608;BME280;45426;44.726;10.390;2023-03-08T01:56:32;99314.84;;;6.57;100.00
59608;BME280;45426;44.726;10.390;2023-03-08T01:58:59;99314.59;;;6.50;100.00
59608;BME280;45426;44.726;10.390;2023-03-08T02:01:26;99305.53;;;6.67;100.00
59608;BME280;45426;44.726;10.390;2023-03-08T02:03:51;99303.88;;;6.74;100.00
59608;BME280;45426;44.726;10.390;2023-03-08T02:06:18;99289.63;;;6.98;100.00
59608;BME280;45426;44.726;10.390;2023-03-08T02:08:44;99286.44;;;6.38;100.00
59608;BME280;45426;44.726;10.390;2023-03-08T02:11:10;99283.56;;;6.22;100.00
59608;BME280;45426;44.726;10.390;2023-03-08T02:13:37;99299.03;;;6.34;100.00
59608;BME280;45426;44.726;10.390;2023-03-08T02:16:05;99298.97;;;6.01;100.00
59608;BME280;45426;44.726;10.390;2023-03-08T02:18:32;99292.13;;;5.74;100.00
59608;BME280;45426;44.726;10.390;2023-03-08T02:20:57;99287.75;;;5.90;100.00
59608;BME280;45426;44.726;10.390;2023-03-08T02:23:24;99284.88;;;5.74;100.00
59608;BME280;45426;44.726;10.390;2023-03-08T02:25:55;99291.06;;;6.84;100.00
59608;BME280;45426;44.726;10.390;2023-03-08T02:28:23;99291.13;;;6.63;100.00
59608;BME280;45426;44.726;10.390;2023-03-08T02:30:49;99293.97;;;6.12;100.00
59608;BME280;45426;44.726;10.390;2023-03-08T02:33:16;99297.50;;;5.53;100.00
59608;BME280;45426;44.726;10.390;2023-03-08T02:35:43;99281.53;;;5.48;100.00
59608;BME280;45426;44.726;10.390;2023-03-08T02:38:13;99282.91;;;6.59;100.00
59608;BME280;45426;44.726;10.390;2023-03-08T02:40:39;99283.06;;;6.08;100.00
59608;BME280;45426;44.726;10.390;2023-03-08T02:43:05;99273.06;;;6.88;100.00
59608;BME280;45426;44.726;10.390;2023-03-08T02:45:31;99276.31;;;6.35;100.00
59608;BME280;45426;44.726;10.390;2023-03-08T02:48:01;99285.38;;;5.68;100.00
59608;BME280;45426;44.726;10.390;2023-03-08T02:50:28;99283.84;;;5.58;100.00
59608;BME280;45426;44.726;10.390;2023-03-08T02:52:53;99283.91;;;5.70;100.00
59608;BME280;45426;44.726;10.390;2023-03-08T02:55:18;99289.66;;;6.53;100.00
59608;BME280;45426;44.726;10.390;2023-03-08T02:57:44;99285.19;;;6.69;100.00
59608;BME280;45426;44.726;10.390;2023-03-08T03:00:10;99281.88;;;6.18;100.00
59608;BME280;45426;44.726;10.390;2023-03-08T03:02:36;99292.53;;;6.48;100.00
59608;BME280;45426;44.726;10.390;2023-03-08T03:05:03;99293.06;;;6.41;100.00
59608;BME280;45426;44.726;10.390;2023-03-08T03:07:28;99292.78;;;6.00;100.00
59608;BME280;45426;44.726;10.390;2023-03-08T03:09:53;99295.94;;;6.24;100.00
59608;BME280;45426;44.726;10.390;2023-03-08T03:12:19;99293.41;;;6.39;100.00
59608;BME280;45426;44.726;10.390;2023-03-08T03:14:44;99286.16;;;6.98;100.00
59608;BME280;45426;44.726;10.390;2023-03-08T03:17:10;99294.13;;;7.07;100.00
59608;BME280;45426;44.726;10.390;2023-03-08T03:19:36;99298.91;;;6.31;100.00
59608;BME280;45426;44.726;10.390;2023-03-08T03:22:02;99307.19;;;6.26;100.00
59608;BME280;45426;44.726;10.390;2023-03-08T03:24:28;99322.00;;;5.69;100.00
59608;BME280;45426;44.726;10.390;2023-03-08T03:26:53;99325.75;;;5.08;100.00
59608;BME280;45426;44.726;10.390;2023-03-08T03:29:19;99330.72;;;5.66;100.00
59608;BME280;45426;44.726;10.390;2023-03-08T03:31:44;99329.22;;;5.77;100.00
59608;BME280;45426;44.726;10.390;2023-03-08T03:34:10;99330.13;;;6.32;100.00
59608;BME280;45426;44.726;10.390;2023-03-08T03:36:35;99331.72;;;6.12;100.00
59608;BME280;45426;44.726;10.390;2023-03-08T03:39:02;99337.59;;;6.14;100.00
59608;BME280;45426;44.726;10.390;2023-03-08T03:41:27;99336.72;;;5.71;100.00
59608;BME280;45426;44.726;10.390;2023-03-08T03:43:53;99345.84;;;5.79;100.00
59608;BME280;45426;44.726;10.390;2023-03-08T03:46:19;99347.47;;;5.41;100.00
59608;BME280;45426;44.726;10.390;2023-03-08T03:48:45;99341.97;;;5.29;100.00
59608;BME280;45426;44.726;10.390;2023-03-08T03:51:13;99345.16;;;5.31;100.00
59608;BME280;45426;44.726;10.390;2023-03-08T03:53:40;99339.69;;;5.49;100.00
59608;BME280;45426;44.726;10.390;2023-03-08T03:56:12;99337.13;;;5.14;100.00
59608;BME280;45426;44.726;10.390;2023-03-08T03:58:38;99342.66;;;5.17;100.00
59608;BME280;45426;44.726;10.390;2023-03-08T04:01:15;99353.28;;;5.52;100.00
59608;BME280;45426;44.726;10.390;2023-03-08T04:03:41;99346.34;;;5.72;100.00
59608;BME280;45426;44.726;10.390;2023-03-08T04:06:20;99351.09;;;5.75;100.00
59608;BME280;45426;44.726;10.390;2023-03-08T04:08:46;99349.28;;;5.58;100.00
59608;BME280;45426;44.726;10.390;2023-03-08T04:11:17;99344.28;;;5.48;100.00
59608;BME280;45426;44.726;10.390;2023-03-08T04:13:43;99356.88;;;5.27;100.00
59608;BME280;45426;44.726;10.390;2023-03-08T04:16:16;99350.63;;;5.05;100.00
59608;BME280;45426;44.726;10.390;2023-03-08T04:18:42;99364.19;;;5.17;100.00
59608;BME280;45426;44.726;10.390;2023-03-08T04:21:09;99367.19;;;5.16;100.00
59608;BME280;45426;44.726;10.390;2023-03-08T04:23:35;99373.25;;;5.51;100.00
59608;BME280;45426;44.726;10.390;2023-03-08T04:26:01;99378.59;;;5.21;100.00
59608;BME280;45426;44.726;10.390;2023-03-08T04:28:27;99386.28;;;4.67;100.00
59608;BME280;45426;44.726;10.390;2023-03-08T04:30:53;99399.59;;;4.28;100.00
59608;BME280;45426;44.726;10.390;2023-03-08T04:33:19;99391.16;;;3.95;100.00
59608;BME280;45426;44.726;10.390;2023-03-08T04:35:45;99396.88;;;4.02;100.00
59608;BME280;45426;44.726;10.390;2023-03-08T04:38:10;99402.13;;;4.25;100.00
59608;BME280;45426;44.726;10.390;2023-03-08T04:40:36;99396.28;;;4.75;100.00
59608;BME280;45426;44.726;10.390;2023-03-08T04:43:22;99387.06;;;4.24;100.00
59608;BME280;45426;44.726;10.390;2023-03-08T04:45:48;99397.84;;;4.41;100.00
59608;BME280;45426;44.726;10.390;2023-03-08T04:48:13;99394.22;;;4.46;100.00
59608;BME280;45426;44.726;10.390;2023-03-08T04:50:38;99399.03;;;5.14;100.00
59608;BME280;45426;44.726;10.390;2023-03-08T04:53:04;99401.00;;;4.52;100.00
59608;BME280;45426;44.726;10.390;2023-03-08T04:55:30;99391.22;;;4.47;100.00
59608;BME280;45426;44.726;10.390;2023-03-08T04:57:55;99394.38;;;4.50;100.00
59608;BME280;45426;44.726;10.390;2023-03-08T05:00:21;99404.78;;;4.34;100.00
59608;BME280;45426;44.726;10.390;2023-03-08T05:02:47;99410.50;;;4.50;100.00
59608;BME280;45426;44.726;10.390;2023-03-08T05:05:12;99395.47;;;5.48;100.00
59608;BME280;45426;44.726;10.390;2023-03-08T05:07:37;99388.78;;;5.54;100.00
59608;BME280;45426;44.726;10.390;2023-03-08T05:10:03;99391.69;;;5.79;100.00
59608;BME280;45426;44.726;10.390;2023-03-08T05:12:28;99386.16;;;5.37;100.00
59608;BME280;45426;44.726;10.390;2023-03-08T05:14:54;99375.06;;;4.74;100.00
59608;BME280;45426;44.726;10.390;2023-03-08T05:17:19;99385.78;;;4.04;100.00
59608;BME280;45426;44.726;10.390;2023-03-08T05:19:45;99385.97;;;4.60;100.00
59608;BME280;45426;44.726;10.390;2023-03-08T05:22:11;99376.31;;;4.76;100.00
59608;BME280;45426;44.726;10.390;2023-03-08T05:24:39;99374.50;;;5.06;100.00
59608;BME280;45426;44.726;10.390;2023-03-08T05:27:08;99359.31;;;5.49;100.00
59608;BME280;45426;44.726;10.390;2023-03-08T05:29:33;99350.75;;;5.56;100.00
59608;BME280;45426;44.726;10.390;2023-03-08T05:32:00;99371.47;;;5.25;100.00
59608;BME280;45426;44.726;10.390;2023-03-08T05:34:27;99373.69;;;6.21;100.00
59608;BME280;45426;44.726;10.390;2023-03-08T05:36:53;99372.31;;;5.56;100.00
59608;BME280;45426;44.726;10.390;2023-03-08T05:39:18;99385.59;;;5.14;100.00
59608;BME280;45426;44.726;10.390;2023-03-08T05:41:44;99373.31;;;4.69;100.00
59608;BME280;45426;44.726;10.390;2023-03-08T05:44:09;99375.38;;;4.81;100.00
59608;BME280;45426;44.726;10.390;2023-03-08T05:46:34;99376.00;;;4.69;100.00
59608;BME280;45426;44.726;10.390;2023-03-08T05:49:02;99379.47;;;4.78;100.00
59608;BME280;45426;44.726;10.390;2023-03-08T05:51:28;99377.50;;;5.14;100.00
59608;BME280;45426;44.726;10.390;2023-03-08T05:53:53;99386.22;;;5.96;100.00
59608;BME280;45426;44.726;10.390;2023-03-08T05:56:21;99381.91;;;5.66;100.00
59608;BME280;45426;44.726;10.390;2023-03-08T05:58:47;99387.13;;;5.32;100.00
59608;BME280;45426;44.726;10.390;2023-03-08T06:01:16;99391.13;;;5.17;100.00
59608;BME280;45426;44.726;10.390;2023-03-08T06:03:43;99395.00;;;5.76;100.00
59608;BME280;45426;44.726;10.390;2023-03-08T06:06:09;99395.84;;;5.68;100.00
59608;BME280;45426;44.726;10.390;2023-03-08T06:08:35;99404.50;;;6.41;100.00
59608;BME280;45426;44.726;10.390;2023-03-08T06:11:00;99402.72;;;5.56;100.00
59608;BME280;45426;44.726;10.390;2023-03-08T06:13:25;99406.03;;;5.06;100.00
59608;BME280;45426;44.726;10.390;2023-03-08T06:15:58;99403.09;;;5.37;100.00
59608;BME280;45426;44.726;10.390;2023-03-08T06:18:24;99409.28;;;5.29;100.00
59608;BME280;45426;44.726;10.390;2023-03-08T06:21:10;99413.94;;;5.67;100.00
59608;BME280;45426;44.726;10.390;2023-03-08T06:23:36;99418.00;;;6.41;100.00
59608;BME280;45426;44.726;10.390;2023-03-08T06:26:03;99423.28;;;6.08;100.00
59608;BME280;45426;44.726;10.390;2023-03-08T06:28:29;99422.88;;;6.18;100.00
59608;BME280;45426;44.726;10.390;2023-03-08T06:30:55;99419.44;;;8.38;100.00
59608;BME280;45426;44.726;10.390;2023-03-08T06:33:23;99405.53;;;11.82;100.00
59608;BME280;45426;44.726;10.390;2023-03-08T06:38:25;99414.72;;;10.85;100.00
59608;BME280;45426;44.726;10.390;2023-03-08T06:40:51;99441.84;;;8.10;100.00
59608;BME280;45426;44.726;10.390;2023-03-08T06:43:17;99443.19;;;9.09;100.00
59608;BME280;45426;44.726;10.390;2023-03-08T06:45:48;99420.19;;;13.63;100.00
59608;BME280;45426;44.726;10.390;2023-03-08T06:48:14;99420.69;;;12.97;100.00
59608;BME280;45426;44.726;10.390;2023-03-08T06:50:40;99420.31;;;11.35;100.00
59608;BME280;45426;44.726;10.390;2023-03-08T06:53:05;99429.97;;;10.35;100.00
59608;BME280;45426;44.726;10.390;2023-03-08T06:55:37;99440.00;;;9.99;100.00
59608;BME280;45426;44.726;10.390;2023-03-08T06:58:03;99446.03;;;9.93;100.00
59608;BME280;45426;44.726;10.390;2023-03-08T07:00:28;99453.16;;;13.88;100.00
59608;BME280;45426;44.726;10.390;2023-03-08T07:02:53;99449.47;;;18.12;100.00
59608;BME280;45426;44.726;10.390;2023-03-08T07:05:20;99443.94;;;21.57;100.00
59608;BME280;45426;44.726;10.390;2023-03-08T07:07:45;99463.19;;;14.99;100.00
59608;BME280;45426;44.726;10.390;2023-03-08T07:10:12;99469.84;;;12.71;100.00
59608;BME280;45426;44.726;10.390;2023-03-08T07:12:40;99481.31;;;13.17;100.00
59608;BME280;45426;44.726;10.390;2023-03-08T07:15:11;99464.81;;;16.72;100.00
59608;BME280;45426;44.726;10.390;2023-03-08T07:17:38;99472.00;;;17.33;100.00
59608;BME280;45426;44.726;10.390;2023-03-08T07:20:04;99496.94;;;16.64;100.00
59608;BME280;45426;44.726;10.390;2023-03-08T07:22:30;99494.66;;;16.27;100.00
59608;BME280;45426;44.726;10.390;2023-03-08T07:24:56;99484.66;;;17.12;100.00
59608;BME280;45426;44.726;10.390;2023-03-08T07:27:21;99488.06;;;18.42;100.00
59608;BME280;45426;44.726;10.390;2023-03-08T07:29:47;99494.69;;;18.87;100.00
59608;BME280;45426;44.726;10.390;2023-03-08T07:32:12;99494.31;;;18.47;100.00
59608;BME280;45426;44.726;10.390;2023-03-08T07:34:37;99491.13;;;18.90;100.00
59608;BME280;45426;44.726;10.390;2023-03-08T07:37:03;99494.88;;;19.34;100.00
59608;BME280;45426;44.726;10.390;2023-03-08T07:39:28;99485.66;;;22.86;100.00
59608;BME280;45426;44.726;10.390;2023-03-08T07:41:54;99476.09;;;25.08;100.00
59608;BME280;45426;44.726;10.390;2023-03-08T07:44:19;99489.91;;;25.52;100.00
59608;BME280;45426;44.726;10.390;2023-03-08T07:46:45;99503.19;;;21.72;100.00
59608;BME280;45426;44.726;10.390;2023-03-08T07:49:10;99505.50;;;23.27;100.00
59608;BME280;45426;44.726;10.390;2023-03-08T07:51:36;99501.06;;;22.58;100.00
59608;BME280;45426;44.726;10.390;2023-03-08T07:54:02;99507.72;;;19.44;100.00
59608;BME280;45426;44.726;10.390;2023-03-08T07:56:27;99505.28;;;20.71;100.00
59608;BME280;45426;44.726;10.390;2023-03-08T07:58:56;99488.34;;;21.66;100.00
59608;BME280;45426;44.726;10.390;2023-03-08T08:01:22;99496.41;;;21.40;100.00
59608;BME280;45426;44.726;10.390;2023-03-08T08:03:47;99503.88;;;20.83;100.00
59608;BME280;45426;44.726;10.390;2023-03-08T08:06:13;99510.59;;;21.22;100.00
59608;BME280;45426;44.726;10.390;2023-03-08T08:08:38;99513.38;;;23.67;100.00
59608;BME280;45426;44.726;10.390;2023-03-08T08:11:15;99520.56;;;23.26;100.00
59608;BME280;45426;44.726;10.390;2023-03-08T08:13:41;99521.38;;;22.97;100.00
59608;BME280;45426;44.726;10.390;2023-03-08T08:16:07;99536.56;;;23.60;100.00
59608;BME280;45426;44.726;10.390;2023-03-08T08:18:33;99533.66;;;23.64;100.00
59608;BME280;45426;44.726;10.390;2023-03-08T08:21:07;99545.25;;;25.59;100.00
59608;BME280;45426;44.726;10.390;2023-03-08T08:23:33;99550.41;;;19.29;100.00
59608;BME280;45426;44.726;10.390;2023-03-08T08:26:02;99549.09;;;17.63;100.00
59608;BME280;45426;44.726;10.390;2023-03-08T08:28:28;99555.44;;;19.03;100.00
59608;BME280;45426;44.726;10.390;2023-03-08T08:31:04;99550.03;;;18.06;100.00
59608;BME280;45426;44.726;10.390;2023-03-08T08:33:30;99557.03;;;17.51;100.00
59608;BME280;45426;44.726;10.390;2023-03-08T08:35:57;99561.56;;;16.94;100.00
59608;BME280;45426;44.726;10.390;2023-03-08T08:38:23;99543.38;;;17.36;100.00
59608;BME280;45426;44.726;10.390;2023-03-08T08:40:50;99540.97;;;17.49;100.00
59608;BME280;45426;44.726;10.390;2023-03-08T08:43:16;99550.34;;;17.55;100.00
59608;BME280;45426;44.726;10.390;2023-03-08T08:45:52;99554.91;;;16.92;100.00
59608;BME280;45426;44.726;10.390;2023-03-08T08:48:18;99559.03;;;18.10;100.00
59608;BME280;45426;44.726;10.390;2023-03-08T08:50:44;99552.09;;;17.13;100.00
59608;BME280;45426;44.726;10.390;2023-03-08T08:53:09;99549.72;;;17.96;100.00
59608;BME280;45426;44.726;10.390;2023-03-08T08:55:35;99540.34;;;18.80;100.00
59608;BME280;45426;44.726;10.390;2023-03-08T08:58:01;99548.13;;;17.29;100.00
59608;BME280;45426;44.726;10.390;2023-03-08T09:00:28;99529.06;;;18.68;100.00
59608;BME280;45426;44.726;10.390;2023-03-08T09:02:53;99533.97;;;18.46;100.00
59608;BME280;45426;44.726;10.390;2023-03-08T09:05:19;99532.22;;;19.66;100.00
59608;BME280;45426;44.726;10.390;2023-03-08T09:07:45;99531.28;;;21.87;100.00
59608;BME280;45426;44.726;10.390;2023-03-08T09:10:10;99537.06;;;22.42;100.00
59608;BME280;45426;44.726;10.390;2023-03-08T09:12:36;99526.50;;;21.71;100.00
59608;BME280;45426;44.726;10.390;2023-03-08T09:15:02;99533.28;;;21.86;100.00
59608;BME280;45426;44.726;10.390;2023-03-08T09:17:27;99526.53;;;22.37;100.00
59608;BME280;45426;44.726;10.390;2023-03-08T09:19:53;99533.88;;;20.61;100.00
59608;BME280;45426;44.726;10.390;2023-03-08T09:22:18;99544.91;;;21.41;100.00
59608;BME280;45426;44.726;10.390;2023-03-08T09:24:44;99549.31;;;22.57;100.00
59608;BME280;45426;44.726;10.390;2023-03-08T09:27:10;99559.78;;;20.20;100.00
59608;BME280;45426;44.726;10.390;2023-03-08T09:29:36;99569.47;;;21.76;100.00
59608;BME280;45426;44.726;10.390;2023-03-08T09:32:03;99563.88;;;22.91;100.00
59608;BME280;45426;44.726;10.390;2023-03-08T09:34:28;99575.78;;;21.93;100.00
59608;BME280;45426;44.726;10.390;2023-03-08T09:36:54;99578.63;;;21.89;100.00
59608;BME280;45426;44.726;10.390;2023-03-08T09:39:19;99581.16;;;23.66;100.00
59608;BME280;45426;44.726;10.390;2023-03-08T09:42:01;99566.31;;;22.26;100.00
59608;BME280;45426;44.726;10.390;2023-03-08T09:44:34;99571.63;;;22.66;100.00
59608;BME280;45426;44.726;10.390;2023-03-08T09:47:21;99583.59;;;22.47;100.00
59608;BME280;45426;44.726;10.390;2023-03-08T09:49:53;99579.03;;;19.96;100.00
59608;BME280;45426;44.726;10.390;2023-03-08T09:54:59;99573.06;;;19.71;100.00
59608;BME280;45426;44.726;10.390;2023-03-08T09:57:35;99571.75;;;20.10;100.00
59608;BME280;45426;44.726;10.390;2023-03-08T10:00:04;99581.28;;;19.47;100.00
59608;BME280;45426;44.726;10.390;2023-03-08T10:02:48;99569.72;;;19.56;100.00
59608;BME280;45426;44.726;10.390;2023-03-08T10:05:33;99573.38;;;18.80;100.00
59608;BME280;45426;44.726;10.390;2023-03-08T10:15:40;99545.66;;;18.57;100.00
59608;BME280;45426;44.726;10.390;2023-03-08T10:18:28;99543.78;;;18.92;100.00
59608;BME280;45426;44.726;10.390;2023-03-08T10:20:57;99541.97;;;19.12;100.00
59608;BME280;45426;44.726;10.390;2023-03-08T10:23:23;99529.38;;;19.11;100.00
59608;BME280;45426;44.726;10.390;2023-03-08T10:25:50;99530.00;;;18.92;100.00
59608;BME280;45426;44.726;10.390;2023-03-08T10:28:18;99518.19;;;19.56;100.00
59608;BME280;45426;44.726;10.390;2023-03-08T10:30:59;99538.22;;;18.95;100.00
59608;BME280;45426;44.726;10.390;2023-03-08T10:33:33;99529.97;;;18.95;100.00
59608;BME280;45426;44.726;10.390;2023-03-08T10:36:18;99526.22;;;17.88;100.00
59608;BME280;45426;44.726;10.390;2023-03-08T10:39:15;99513.91;;;19.25;100.00
59608;BME280;45426;44.726;10.390;2023-03-08T10:41:47;99518.28;;;18.88;100.00
59608;BME280;45426;44.726;10.390;2023-03-08T10:44:35;99511.34;;;18.72;100.00
59608;BME280;45426;44.726;10.390;2023-03-08T10:47:18;99507.63;;;18.90;100.00
59608;BME280;45426;44.726;10.390;2023-03-08T10:49:44;99509.16;;;18.53;100.00
59608;BME280;45426;44.726;10.390;2023-03-08T10:52:22;99515.03;;;19.54;100.00
59608;BME280;45426;44.726;10.390;2023-03-08T10:55:05;99495.47;;;19.76;100.00
59608;BME280;45426;44.726;10.390;2023-03-08T10:57:32;99505.88;;;19.03;100.00
59608;BME280;45426;44.726;10.390;2023-03-08T11:02:48;99496.34;;;18.77;100.00
59608;BME280;45426;44.726;10.390;2023-03-08T11:05:24;99495.84;;;18.48;100.00
59608;BME280;45426;44.726;10.390;2023-03-08T11:07:57;99498.28;;;18.84;100.00
59608;BME280;45426;44.726;10.390;2023-03-08T11:10:30;99502.56;;;18.85;100.00
59608;BME280;45426;44.726;10.390;2023-03-08T11:13:02;99483.19;;;19.53;100.00
59608;BME280;45426;44.726;10.390;2023-03-08T11:15:31;99480.09;;;19.20;100.00
59608;BME280;45426;44.726;10.390;2023-03-08T11:18:13;99470.09;;;19.61;100.00
59608;BME280;45426;44.726;10.390;2023-03-08T11:20:55;99474.19;;;19.22;100.00
59608;BME280;45426;44.726;10.390;2023-03-08T11:23:36;99470.16;;;19.57;100.00
59608;BME280;45426;44.726;10.390;2023-03-08T11:26:24;99488.84;;;18.77;100.00
59608;BME280;45426;44.726;10.390;2023-03-08T11:54:35;99511.13;;;18.94;100.00
59608;BME280;45426;44.726;10.390;2023-03-08T11:57:08;99506.72;;;19.31;100.00
59608;BME280;45426;44.726;10.390;2023-03-08T11:59:45;99501.84;;;19.42;100.00
59608;BME280;45426;44.726;10.390;2023-03-08T12:07:44;99480.88;;;18.90;100.00
59608;BME280;45426;44.726;10.390;2023-03-08T12:10:21;99471.16;;;18.02;100.00
59608;BME280;45426;44.726;10.390;2023-03-08T12:13:00;99471.59;;;18.39;100.00
59608;BME280;45426;44.726;10.390;2023-03-08T12:15:36;99463.28;;;18.84;100.00
59608;BME280;45426;44.726;10.390;2023-03-08T12:18:20;99454.81;;;19.29;100.00
59608;BME280;45426;44.726;10.390;2023-03-08T12:20:49;99459.75;;;18.84;100.00
59608;BME280;45426;44.726;10.390;2023-03-08T12:23:25;99460.25;;;18.71;100.00
59608;BME280;45426;44.726;10.390;2023-03-08T12:26:06;99462.50;;;18.84;100.00
59608;BME280;45426;44.726;10.390;2023-03-08T12:28:50;99459.53;;;19.83;100.00
59608;BME280;45426;44.726;10.390;2023-03-08T12:31:36;99470.47;;;19.36;100.00
59608;BME280;45426;44.726;10.390;2023-03-08T12:34:12;99468.53;;;20.11;100.00
59608;BME280;45426;44.726;10.390;2023-03-08T12:36:42;99457.38;;;20.18;100.00
59608;BME280;45426;44.726;10.390;2023-03-08T12:39:25;99454.00;;;20.30;100.00
59608;BME280;45426;44.726;10.390;2023-03-08T12:42:00;99469.28;;;19.06;100.00
59608;BME280;45426;44.726;10.390;2023-03-08T12:44:28;99472.25;;;20.01;100.00
59608;BME280;45426;44.726;10.390;2023-03-08T12:46:58;99460.38;;;19.80;100.00
59608;BME280;45426;44.726;10.390;2023-03-08T12:49:31;99467.66;;;19.67;100.00
59608;BME280;45426;44.726;10.390;2023-03-08T12:52:23;99451.09;;;18.47;100.00
59608;BME280;45426;44.726;10.390;2023-03-08T12:57:27;99458.06;;;19.20;100.00
59608;BME280;45426;44.726;10.390;2023-03-08T12:59:56;99456.06;;;19.25;100.00
59608;BME280;45426;44.726;10.390;2023-03-08T13:08:22;99407.69;;;19.24;100.00
59608;BME280;45426;44.726;10.390;2023-03-08T13:11:04;99425.66;;;19.05;100.00
59608;BME280;45426;44.726;10.390;2023-03-08T13:13:44;99422.16;;;19.82;100.00
59608;BME280;45426;44.726;10.390;2023-03-08T13:18:45;99412.94;;;18.87;100.00
59608;BME280;45426;44.726;10.390;2023-03-08T13:21:19;99415.50;;;19.29;100.00
59608;BME280;45426;44.726;10.390;2023-03-08T13:23:57;99415.34;;;18.81;100.00
59608;BME280;45426;44.726;10.390;2023-03-08T13:29:14;99425.53;;;19.15;100.00
59608;BME280;45426;44.726;10.390;2023-03-08T13:31:40;99410.88;;;19.96;100.00
59608;BME280;45426;44.726;10.390;2023-03-08T13:34:23;99400.63;;;19.23;100.00
59608;BME280;45426;44.726;10.390;2023-03-08T13:36:48;99394.28;;;19.53;100.00
59608;BME280;45426;44.726;10.390;2023-03-08T13:39:21;99387.88;;;19.83;100.00
59608;BME280;45426;44.726;10.390;2023-03-08T13:41:48;99374.16;;;20.03;100.00
59608;BME280;45426;44.726;10.390;2023-03-08T13:46:42;99366.72;;;19.53;100.00
59608;BME280;45426;44.726;10.390;2023-03-08T13:49:29;99387.66;;;19.97;100.00
59608;BME280;45426;44.726;10.390;2023-03-08T13:51:58;99382.72;;;19.85;100.00
59608;BME280;45426;44.726;10.390;2023-03-08T13:54:30;99374.78;;;19.64;100.00
59608;BME280;45426;44.726;10.390;2023-03-08T13:57:05;99384.00;;;19.03;100.00
59608;BME280;45426;44.726;10.390;2023-03-08T13:59:32;99393.16;;;19.47;100.00
59608;BME280;45426;44.726;10.390;2023-03-08T14:01:58;99399.19;;;19.65;100.00